Terminal Aerodrome Forecast
Issued by NWS

Home | Current Version | Previous Version | Text Only | Print | Product List | Glossary On
Versions: 1 2 3 4 5 6 7 8 9 10 11 12 13 14 15 16 17 18
000
FTUS43 KIND 241120
TAFBMG
TAF
KBMG 241120Z 2412/2512 26012G21KT P6SM BKN060
     FM241600 26013G22KT P6SM VCSH OVC025
     FM242000 26014G23KT P6SM -SHRA OVC025
     FM242200 27013G22KT P6SM VCSH OVC020
     FM250000 27012G20KT P6SM VCSH OVC015
     FM250300 27010KT P6SM OVC020
      AMD LTD TO CLD VIS AND WIND TIL 241300=

USA.gov is the U.S. government's official web portal to all federal, state and local government web resources and services.